createdAt,value
2018-09-06T00:01:15.583Z,6.13
2018-09-06T00:07:20.764Z,5.90
2018-09-06T00:13:25.460Z,6.40
2018-09-06T00:19:30.211Z,5.80
2018-09-06T00:25:35.807Z,7.00
2018-09-06T00:31:41.699Z,5.17
2018-09-06T00:37:46.747Z,6.00
2018-09-06T00:43:51.655Z,5.57
2018-09-06T00:49:56.522Z,6.50
2018-09-06T00:56:01.371Z,7.60
2018-09-06T01:02:06.661Z,7.97
2018-09-06T01:08:14.438Z,6.47
2018-09-06T01:14:19.454Z,5.77
2018-09-06T01:20:24.347Z,6.27
2018-09-06T01:26:29.634Z,6.40
2018-09-06T01:32:34.877Z,6.40
2018-09-06T01:38:39.889Z,6.90
2018-09-06T01:44:44.841Z,6.83
2018-09-06T01:50:49.636Z,5.90
2018-09-06T01:56:54.460Z,5.73
2018-09-06T02:02:59.650Z,5.80
2018-09-06T02:09:05.854Z,6.93
2018-09-06T02:15:11.122Z,7.13
2018-09-06T02:21:15.959Z,6.97
2018-09-06T02:27:20.819Z,7.20
2018-09-06T02:33:25.721Z,6.87
2018-09-06T02:39:30.558Z,6.10
2018-09-06T02:45:35.495Z,8.00
2018-09-06T02:51:41.706Z,6.93
2018-09-06T02:57:47.065Z,8.40
2018-09-06T03:03:51.818Z,7.17
2018-09-06T03:09:56.645Z,6.10
2018-09-06T03:16:02.018Z,6.87
2018-09-06T03:22:06.847Z,7.30
2018-09-06T03:28:13.113Z,7.30
2018-09-06T03:34:17.853Z,6.60
2018-09-06T03:40:22.833Z,6.33
2018-09-06T03:46:27.573Z,7.03
2018-09-06T03:52:32.391Z,7.33
2018-09-06T03:58:37.546Z,8.03
2018-09-06T04:04:44.039Z,6.70
2018-09-06T04:10:48.926Z,7.17
2018-09-06T04:16:53.793Z,7.20
2018-09-06T04:22:58.568Z,6.83
2018-09-06T04:29:03.567Z,7.97
2018-09-06T04:35:09.569Z,7.80
2018-09-06T04:41:15.391Z,7.50
2018-09-06T04:47:20.170Z,7.63
2018-09-06T04:53:24.909Z,7.67
2018-09-06T04:59:29.843Z,7.60
2018-09-06T05:05:34.720Z,7.43
2018-09-06T05:11:40.859Z,7.90
2018-09-06T05:17:46.471Z,7.83
2018-09-06T05:23:51.232Z,7.33
2018-09-06T05:29:56.535Z,7.10
2018-09-06T05:36:01.463Z,7.80
2018-09-06T05:42:06.636Z,7.40
2018-09-06T05:48:11.981Z,7.50
2018-09-06T05:54:16.880Z,7.40
2018-09-06T06:00:26.957Z,6.60
2018-09-06T06:06:31.703Z,8.20
2018-09-06T06:12:36.457Z,7.37
2018-09-06T06:18:41.598Z,6.30
2018-09-06T06:24:46.620Z,6.33
2018-09-06T06:30:51.524Z,6.57
2018-09-06T06:36:56.513Z,6.30
2018-09-06T06:43:01.363Z,6.50
2018-09-06T06:49:06.839Z,6.60
2018-09-06T06:55:12.081Z,7.30
2018-09-06T07:01:17.519Z,6.20
2018-09-06T07:07:22.286Z,5.97
2018-09-06T07:13:27.248Z,6.07
2018-09-06T07:19:32.197Z,6.87
2018-09-06T07:25:36.981Z,6.30
2018-09-06T07:31:42.552Z,6.47
2018-09-06T07:37:47.454Z,6.00
2018-09-06T07:43:52.277Z,5.67
2018-09-06T07:49:57.129Z,6.07
2018-09-06T07:56:02.205Z,6.30
2018-09-06T08:02:07.079Z,6.40
2018-09-06T08:08:12.346Z,6.40
2018-09-06T08:14:17.292Z,5.53
2018-09-06T08:20:22.132Z,6.23
2018-09-06T08:26:27.404Z,6.70
2018-09-06T08:32:32.159Z,5.73
2018-09-06T08:38:37.070Z,6.83
2018-09-06T08:44:42.354Z,6.20
2018-09-06T08:50:47.665Z,6.17
2018-09-06T08:56:52.764Z,6.07
2018-09-06T09:02:57.846Z,6.53
2018-09-06T09:09:02.527Z,5.80
2018-09-06T09:15:07.921Z,6.73
2018-09-06T09:21:13.622Z,6.50
2018-09-06T09:27:18.478Z,6.00
2018-09-06T09:33:23.384Z,6.50
2018-09-06T09:39:28.283Z,6.40
2018-09-06T09:45:33.042Z,5.97
2018-09-06T09:51:37.905Z,5.63
2018-09-06T09:57:43.490Z,6.53
2018-09-06T10:03:53.465Z,5.80
2018-09-06T10:09:58.590Z,6.17
2018-09-06T10:16:03.702Z,6.20
2018-09-06T10:22:09.154Z,6.93
2018-09-06T10:28:14.263Z,6.73
2018-09-06T10:34:19.324Z,6.57
2018-09-06T10:40:24.239Z,6.63
2018-09-06T10:46:28.899Z,6.60
2018-09-06T10:52:33.937Z,6.90
2018-09-06T10:58:39.032Z,7.23
2018-09-06T11:04:44.476Z,8.23
2018-09-06T11:10:49.568Z,8.67
2018-09-06T11:16:54.353Z,9.00
2018-09-06T11:22:59.148Z,8.13
2018-09-06T11:29:03.891Z,10.10
2018-09-06T11:35:08.742Z,8.90
2018-09-06T11:41:13.585Z,8.80
2018-09-06T11:47:19.036Z,7.83
2018-09-06T11:53:23.721Z,9.13
2018-09-06T11:59:28.508Z,9.03
2018-09-06T12:05:33.348Z,9.03
2018-09-06T12:11:38.260Z,9.80
2018-09-06T12:17:44.379Z,10.10
2018-09-06T12:23:49.307Z,9.73
2018-09-06T12:29:54.115Z,10.03
2018-09-06T12:35:59.072Z,9.90
2018-09-06T12:42:04.008Z,10.40
2018-09-06T12:48:09.148Z,9.83
2018-09-06T12:54:14.327Z,8.50
2018-09-06T13:00:19.087Z,10.20
2018-09-06T13:06:23.885Z,10.80
2018-09-06T13:12:28.692Z,10.40
2018-09-06T13:18:33.522Z,11.00
2018-09-06T13:24:38.641Z,10.57
2018-09-06T13:30:43.591Z,11.73
2018-09-06T13:36:48.779Z,10.83
2018-09-06T13:42:53.553Z,10.53
2018-09-06T13:48:58.216Z,10.27
2018-09-06T13:55:03.094Z,10.03
2018-09-06T14:01:07.895Z,10.77
2018-09-06T14:07:13.523Z,10.20
2018-09-06T14:13:18.352Z,10.20
2018-09-06T14:19:23.114Z,11.40
2018-09-06T14:25:27.960Z,10.87
2018-09-06T14:31:32.746Z,11.40
2018-09-06T14:37:37.705Z,11.30
2018-09-06T14:43:43.633Z,10.60
2018-09-06T14:49:48.404Z,10.13
2018-09-06T14:55:53.228Z,9.83
2018-09-06T15:01:57.985Z,8.70
2018-09-06T15:08:02.708Z,9.47
2018-09-06T15:14:09.366Z,8.77
2018-09-06T15:20:14.345Z,8.80
2018-09-06T15:26:19.128Z,10.90
2018-09-06T15:32:23.990Z,11.70
2018-09-06T15:38:28.846Z,12.57
2018-09-06T15:44:33.590Z,9.43
2018-09-06T15:50:39.193Z,12.27
2018-09-06T15:56:44.109Z,11.07
2018-09-06T16:02:48.857Z,10.13
2018-09-06T16:08:54.199Z,8.50
2018-09-06T16:14:58.979Z,10.33
2018-09-06T16:21:03.771Z,10.23
2018-09-06T16:27:08.693Z,10.80
2018-09-06T16:33:14.765Z,10.83
2018-09-06T16:39:19.491Z,14.40
2018-09-06T16:45:24.387Z,15.70
2018-09-06T16:51:29.240Z,15.53
2018-09-06T16:57:34.836Z,14.37
2018-09-06T17:03:39.827Z,14.10
2018-09-06T17:09:45.467Z,14.23
2018-09-06T17:15:50.389Z,15.30
2018-09-06T17:21:55.549Z,15.23
2018-09-06T17:28:00.417Z,13.73
2018-09-06T17:34:05.291Z,14.13
2018-09-06T17:40:10.117Z,15.53
2018-09-06T17:46:15.548Z,15.97
2018-09-06T17:52:20.401Z,15.60
2018-09-06T17:58:25.163Z,16.27
2018-09-06T18:04:29.965Z,13.90
2018-09-06T18:10:34.947Z,13.60
2018-09-06T18:16:40.573Z,13.30
2018-09-06T18:22:45.352Z,14.80
2018-09-06T18:28:50.246Z,15.30
2018-09-06T18:34:56.063Z,15.37
2018-09-06T18:41:00.866Z,16.33
2018-09-06T18:47:05.856Z,14.37
2018-09-06T18:53:13.138Z,17.30
2018-09-06T18:59:18.250Z,17.27
2018-09-06T19:05:23.188Z,16.40
2018-09-06T19:11:28.623Z,17.77
2018-09-06T19:17:33.972Z,22.27
2018-09-06T19:23:39.148Z,23.47
2018-09-06T19:29:45.151Z,24.53
2018-09-06T19:35:49.933Z,23.10
2018-09-06T19:41:54.813Z,25.40
2018-09-06T19:47:59.702Z,24.50
2018-09-06T19:54:04.526Z,25.10
2018-09-06T20:00:11.219Z,24.20
2018-09-06T20:06:16.553Z,25.67
2018-09-06T20:12:21.738Z,27.33
2018-09-06T20:18:26.607Z,27.60
2018-09-06T20:24:31.572Z,25.50
2018-09-06T20:30:36.523Z,25.87
2018-09-06T20:36:41.661Z,26.27
2018-09-06T20:42:47.398Z,25.00
2018-09-06T20:48:52.657Z,24.83
2018-09-06T20:54:57.425Z,24.30
2018-09-06T21:01:02.266Z,21.97
2018-09-06T21:07:07.218Z,23.80
2018-09-06T21:13:13.373Z,23.30
2018-09-06T21:19:18.164Z,24.30
2018-09-06T21:25:23.101Z,28.27
2018-09-06T21:31:27.924Z,27.63
2018-09-06T21:37:33.471Z,27.87
2018-09-06T21:43:38.357Z,29.73
2018-09-06T21:49:43.227Z,29.10
2018-09-06T21:55:48.143Z,29.33
2018-09-06T22:01:53.151Z,28.13
2018-09-06T22:07:57.983Z,29.63
2018-09-06T22:14:02.805Z,31.00
2018-09-06T22:20:07.762Z,29.67
2018-09-06T22:26:12.933Z,33.70
2018-09-06T22:32:17.788Z,34.03
2018-09-06T22:38:22.652Z,32.13
2018-09-06T22:44:27.494Z,30.70
2018-09-06T22:50:32.409Z,30.80
2018-09-06T22:56:37.232Z,31.40
2018-09-06T23:02:47.251Z,39.63
2018-09-06T23:08:52.042Z,34.43
2018-09-06T23:14:57.034Z,31.47
2018-09-06T23:21:02.055Z,33.63
2018-09-06T23:27:06.840Z,32.13
2018-09-06T23:33:11.933Z,32.97
2018-09-06T23:39:16.784Z,33.20
2018-09-06T23:45:21.620Z,34.43
2018-09-06T23:51:26.565Z,34.53
2018-09-06T23:57:31.284Z,36.40
